Time;durP1;ratioP1;P1;durP2;ratioP2;P2;SDS_P1;SDS_P2;PMS_P1;PMS_P2;Temp;Humidity;BMP_temperature;BMP_pressure;BME280_temperature;BME280_humidity;BME280_pressure;Samples;Min_cycle;Max_cycle;Signal;HPM_P1;HPM_P2
2023/08/29 00:02:23;;;;;;;;;6.00;2.75;;;;;16.82;58.32;100787.78;5066689;28;45466;-72
2023/08/29 00:04:48;;;;;;;;;4.50;4.50;;;;;16.84;58.07;100786.81;5073786;28;45539;-72
2023/08/29 00:07:14;;;;;;;;;4.00;4.00;;;;;16.81;58.34;100791.38;5077451;28;66254;-72
2023/08/29 00:09:39;;;;;;;;;5.00;4.50;;;;;16.78;58.46;100788.91;5066610;28;45476;-72
2023/08/29 00:12:05;;;;;;;;;7.00;4.50;;;;;16.74;58.58;100793.50;5068340;28;64326;-71
2023/08/29 00:14:30;;;;;;;;;3.00;3.00;;;;;16.66;58.91;100787.72;5049610;28;45421;-71
2023/08/29 00:16:55;;;;;;;;;3.00;3.00;;;;;16.67;59.00;100789.47;5082304;28;45496;-72
2023/08/29 00:19:21;;;;;;;;;6.00;4.25;;;;;16.61;59.16;100784.47;5096479;27;68456;-72
2023/08/29 00:21:47;;;;;;;;;4.75;3.00;;;;;16.63;59.41;100790.56;5076213;28;45436;-71
2023/08/29 00:24:13;;;;;;;;;5.00;4.00;;;;;16.64;59.11;100792.25;5078376;27;45413;-71
2023/08/29 00:26:38;;;;;;;;;5.00;3.50;;;;;16.63;59.32;100783.47;5075418;28;45351;-71
2023/08/29 00:29:03;;;;;;;;;5.50;5.00;;;;;16.62;59.54;100797.59;5049826;28;73116;-71
2023/08/29 00:31:29;;;;;;;;;3.75;3.75;;;;;16.61;59.43;100789.75;5075516;27;53951;-71
2023/08/29 00:33:54;;;;;;;;;4.50;4.50;;;;;16.64;59.56;100793.13;5070785;28;60816;-71
2023/08/29 00:36:20;;;;;;;;;5.25;3.75;;;;;16.66;59.55;100793.91;5081113;28;45537;-71
2023/08/29 00:38:45;;;;;;;;;4.00;4.00;;;;;16.62;59.60;100794.97;5077497;28;45450;-71
2023/08/29 00:41:11;;;;;;;;;4.00;4.00;;;;;16.63;59.31;100794.03;5075836;28;54292;-72
2023/08/29 00:43:37;;;;;;;;;3.00;3.00;;;;;16.62;60.10;100786.19;5075190;28;45334;-71
2023/08/29 00:46:03;;;;;;;;;3.00;3.00;;;;;16.61;59.93;100785.34;5066691;27;45488;-72
2023/08/29 00:48:29;;;;;;;;;4.50;3.75;;;;;16.60;60.05;100785.44;5076794;27;47192;-72
2023/08/29 00:50:54;;;;;;;;;2.75;2.00;;;;;16.59;60.23;100781.06;5076059;27;45483;-71
2023/08/29 00:53:20;;;;;;;;;4.50;2.50;;;;;16.58;60.05;100782.84;5081328;27;45537;-71
2023/08/29 00:55:45;;;;;;;;;3.50;3.00;;;;;16.57;60.19;100780.28;5078439;27;45438;-72
2023/08/29 00:58:12;;;;;;;;;3.75;2.50;;;;;16.58;60.43;100768.81;5077861;27;60969;-71
2023/08/29 01:00:38;;;;;;;;;4.00;4.00;;;;;16.60;60.09;100783.63;5070865;28;45439;-71
2023/08/29 01:03:05;;;;;;;;;4.00;4.00;;;;;16.61;60.47;100773.91;5078638;27;45447;-73
2023/08/29 01:05:30;;;;;;;;;4.00;3.00;;;;;16.57;60.55;100767.09;5078942;27;45403;-71
2023/08/29 01:07:58;;;;;;;;;3.00;3.00;;;;;16.58;60.61;100771.44;5068881;28;46080;-72
2023/08/29 01:10:43;;;;;;;;;5.00;2.50;;;;;16.60;60.49;100783.63;5078093;27;45830;-71
2023/08/29 01:13:19;;;;;;;;;6.25;3.25;;;;;16.59;60.60;100786.34;5079375;27;45223;-73
2023/08/29 01:15:48;;;;;;;;;3.00;3.00;;;;;16.58;60.51;100787.28;5059734;28;46130;-71
2023/08/29 01:18:15;;;;;;;;;6.00;5.00;;;;;16.55;60.45;100766.31;5070794;27;45541;-72
2023/08/29 01:20:41;;;;;;;;;4.00;3.50;;;;;16.58;61.02;100780.22;5070410;27;45527;-72
2023/08/29 01:23:21;;;;;;;;;4.00;3.50;;;;;16.54;60.88;100772.50;5071445;28;62421;-72
2023/08/29 01:26:05;;;;;;;;;4.50;4.00;;;;;16.57;60.93;100767.09;5074336;28;45383;-72
2023/08/29 01:28:31;;;;;;;;;4.00;3.25;;;;;16.51;61.00;100763.81;5076989;28;45958;-73
2023/08/29 01:30:58;;;;;;;;;5.00;4.00;;;;;16.49;61.14;100756.91;5069031;28;45450;-72
2023/08/29 01:33:24;;;;;;;;;3.50;3.50;;;;;16.47;61.33;100766.72;5079346;28;45398;-73
2023/08/29 01:35:49;;;;;;;;;3.25;3.25;;;;;16.47;61.30;100770.19;5069039;27;45475;-73
2023/08/29 01:38:18;;;;;;;;;4.25;3.50;;;;;16.42;61.39;100768.72;5079429;28;45969;-72
2023/08/29 01:40:44;;;;;;;;;3.75;2.25;;;;;16.41;61.62;100767.00;5070529;28;45746;-72
2023/08/29 01:43:09;;;;;;;;;3.75;3.75;;;;;16.42;61.55;100772.22;5061712;28;45370;-72
2023/08/29 01:45:34;;;;;;;;;2.75;2.75;;;;;16.42;61.68;100771.38;5065316;28;45469;-73
2023/08/29 01:48:00;;;;;;;;;3.50;3.00;;;;;16.39;61.63;100764.44;5047929;28;48062;-70
2023/08/29 01:50:26;;;;;;;;;4.50;3.00;;;;;16.37;61.67;100768.09;5077438;28;45453;-71
2023/08/29 01:52:52;;;;;;;;;5.50;3.75;;;;;16.36;61.90;100771.66;5079110;28;45614;-71
2023/08/29 01:55:18;;;;;;;;;4.50;4.00;;;;;16.32;61.92;100763.94;5075245;28;72365;-70
2023/08/29 01:57:44;;;;;;;;;3.25;3.25;;;;;16.31;61.99;100764.00;5078882;27;46050;-71
2023/08/29 02:00:10;;;;;;;;;2.75;2.75;;;;;16.29;62.24;100774.63;5078784;28;45839;-71
2023/08/29 02:02:36;;;;;;;;;7.25;4.75;;;;;16.26;62.21;100769.50;5050439;28;45547;-71
2023/08/29 02:05:01;;;;;;;;;5.25;4.00;;;;;16.21;62.13;100758.31;5077735;28;72641;-72
2023/08/29 02:07:26;;;;;;;;;3.75;3.50;;;;;16.22;62.16;100767.06;5053566;28;69268;-71
2023/08/29 02:09:52;;;;;;;;;6.00;4.25;;;;;16.19;62.38;100764.63;5068435;28;45221;-71
2023/08/29 02:12:17;;;;;;;;;5.75;4.00;;;;;16.20;62.71;100771.59;5070069;28;45517;-71
2023/08/29 02:14:42;;;;;;;;;4.75;4.00;;;;;16.14;62.78;100764.81;5065702;28;60617;-71
2023/08/29 02:17:08;;;;;;;;;4.75;4.50;;;;;16.13;62.97;100773.69;5072733;28;45309;-71
2023/08/29 02:19:33;;;;;;;;;4.25;3.50;;;;;16.10;62.90;100765.91;5089017;27;63535;-71
2023/08/29 02:21:58;;;;;;;;;3.25;3.25;;;;;16.11;63.21;100770.25;5070229;28;45519;-72
2023/08/29 02:24:24;;;;;;;;;5.50;5.00;;;;;16.13;62.89;100777.19;5070094;28;45474;-71
2023/08/29 02:26:49;;;;;;;;;5.25;4.25;;;;;16.13;63.00;100784.25;5073802;28;46009;-71
2023/08/29 02:29:15;;;;;;;;;5.25;5.00;;;;;16.12;62.88;100778.09;5065043;28;59228;-71
2023/08/29 02:31:40;;;;;;;;;7.25;4.00;;;;;16.12;63.15;100795.75;5067951;27;45567;-71
2023/08/29 02:34:05;;;;;;;;;4.50;4.50;;;;;16.10;63.23;100784.41;5073481;28;68542;-71
2023/08/29 02:36:30;;;;;;;;;6.50;5.25;;;;;16.10;63.34;100787.88;5059533;27;74425;-71
2023/08/29 02:38:56;;;;;;;;;7.50;5.75;;;;;16.08;63.81;100781.84;5085928;27;71032;-71
2023/08/29 02:41:21;;;;;;;;;5.75;4.00;;;;;16.15;63.26;100787.66;5072716;28;45516;-71
2023/08/29 02:43:46;;;;;;;;;5.25;4.50;;;;;16.13;63.36;100786.91;5084197;27;66382;-71
2023/08/29 02:46:12;;;;;;;;;5.50;4.50;;;;;16.14;63.37;100784.16;5073666;28;67816;-70
2023/08/29 02:48:37;;;;;;;;;5.25;3.50;;;;;16.11;63.54;100780.81;5077666;28;45452;-71
2023/08/29 02:51:02;;;;;;;;;5.00;3.50;;;;;16.12;63.04;100780.75;5071326;28;57680;-71
2023/08/29 02:53:29;;;;;;;;;7.25;4.75;;;;;16.11;63.54;100772.91;5071701;28;45508;-71
2023/08/29 02:55:56;;;;;;;;;6.75;4.75;;;;;16.10;63.54;100779.13;5073643;28;45364;-72
2023/08/29 02:58:21;;;;;;;;;7.75;4.75;;;;;16.06;63.87;100767.84;5074731;28;61990;-72
2023/08/29 03:00:47;;;;;;;;;6.00;4.50;;;;;16.04;64.07;100777.66;5064266;28;45341;-72
2023/08/29 03:03:13;;;;;;;;;5.50;5.00;;;;;16.08;64.17;100779.19;5074415;28;45316;-72
2023/08/29 03:05:42;;;;;;;;;6.00;3.75;;;;;16.06;64.15;100774.91;5066141;28;47238;-72
2023/08/29 03:08:07;;;;;;;;;7.75;5.00;;;;;16.08;64.17;100770.44;5056055;28;45823;-72
2023/08/29 03:10:36;;;;;;;;;9.00;4.00;;;;;16.08;64.08;100771.28;5070576;28;45496;-72
2023/08/29 03:13:01;;;;;;;;;6.75;3.50;;;;;16.08;64.42;100765.16;5069353;28;45437;-71
2023/08/29 03:15:31;;;;;;;;;4.75;4.75;;;;;16.06;64.59;100765.22;5078800;28;46200;-71
2023/08/29 03:17:59;;;;;;;;;4.00;4.00;;;;;16.05;64.30;100765.28;5075614;28;45455;-72
2023/08/29 03:20:24;;;;;;;;;6.00;3.50;;;;;16.05;64.35;100758.22;5064614;28;45392;-72
2023/08/29 03:22:49;;;;;;;;;6.25;5.25;;;;;16.07;64.32;100761.63;5065550;28;74230;-73
2023/08/29 03:25:14;;;;;;;;;7.00;5.00;;;;;16.01;64.47;100751.38;5078762;28;64558;-71
2023/08/29 03:27:40;;;;;;;;;7.75;4.50;;;;;16.10;64.28;100764.13;5065884;28;65847;-71
2023/08/29 03:30:06;;;;;;;;;7.25;5.50;;;;;16.12;64.62;100764.06;5064348;28;67266;-72
2023/08/29 03:32:31;;;;;;;;;1.75;1.00;;;;;16.10;64.15;100758.00;5072626;28;45510;-71
2023/08/29 03:34:58;;;;;;;;;5.25;4.50;;;;;16.11;64.53;100763.22;5075988;28;60561;-72
2023/08/29 03:37:23;;;;;;;;;8.25;5.75;;;;;16.13;64.46;100766.63;5062136;28;45411;-72
2023/08/29 03:39:49;;;;;;;;;7.00;4.75;;;;;16.13;64.84;100752.56;5065331;28;58284;-72
2023/08/29 03:42:14;;;;;;;;;6.50;4.75;;;;;16.16;64.52;100752.41;5075893;28;45412;-71
2023/08/29 03:44:39;;;;;;;;;8.25;7.00;;;;;16.18;65.09;100747.88;5073619;28;45554;-71
2023/08/29 03:47:05;;;;;;;;;5.75;5.00;;;;;16.20;64.59;100755.75;5077455;28;60101;-71
2023/08/29 03:49:30;;;;;;;;;6.25;5.50;;;;;16.17;64.51;100748.00;5073206;28;45588;-72
2023/08/29 03:51:56;;;;;;;;;6.75;5.00;;;;;16.14;64.35;100743.72;5045951;28;65878;-70
2023/08/29 03:54:21;;;;;;;;;9.75;7.50;;;;;16.07;65.33;100743.16;5068591;28;62211;-71
2023/08/29 03:56:48;;;;;;;;;9.50;7.50;;;;;16.02;65.05;100741.69;5072659;28;45307;-71
2023/08/29 03:59:13;;;;;;;;;11.25;9.25;;;;;15.96;65.05;100742.84;5061962;28;45639;-71
2023/08/29 04:01:38;;;;;;;;;11.25;8.75;;;;;15.93;65.50;100749.09;5065457;28;71236;-71
2023/08/29 04:04:04;;;;;;;;;12.75;10.00;;;;;15.92;65.60;100749.22;5062174;28;65501;-71
2023/08/29 04:06:33;;;;;;;;;12.75;11.50;;;;;15.87;65.77;100744.16;5063914;28;45470;-71
2023/08/29 04:08:59;;;;;;;;;11.00;9.75;;;;;15.87;65.76;100745.94;5066841;28;45431;-71
2023/08/29 04:11:24;;;;;;;;;12.00;9.50;;;;;15.84;65.67;100741.66;5071274;28;45471;-71
2023/08/29 04:13:49;;;;;;;;;12.75;11.50;;;;;15.81;66.19;100741.81;5072499;28;65227;-71
2023/08/29 04:16:15;;;;;;;;;11.75;9.25;;;;;15.78;66.24;100736.69;5059662;28;60101;-72
2023/08/29 04:18:40;;;;;;;;;11.75;10.00;;;;;15.75;66.08;100739.47;5076212;28;45368;-71
2023/08/29 04:21:05;;;;;;;;;10.25;7.25;;;;;15.72;66.26;100743.09;5069771;28;59878;-72
2023/08/29 04:23:31;;;;;;;;;10.00;7.50;;;;;15.72;66.44;100745.72;5073856;28;66711;-72
2023/08/29 04:25:59;;;;;;;;;5.75;4.00;;;;;15.70;66.45;100734.38;5066967;28;70448;-71
2023/08/29 04:28:25;;;;;;;;;12.50;8.25;;;;;15.67;66.44;100736.31;5066672;28;45533;-72
2023/08/29 04:30:50;;;;;;;;;8.25;8.25;;;;;15.62;66.87;100736.53;5089369;27;45765;-72
2023/08/29 04:33:15;;;;;;;;;8.75;6.50;;;;;15.64;66.83;100739.09;5062320;27;72458;-72
2023/08/29 04:35:41;;;;;;;;;11.00;8.75;;;;;15.63;67.27;100735.59;5071746;27;45178;-73
2023/08/29 04:38:07;;;;;;;;;8.75;7.00;;;;;15.65;67.13;100738.16;5070651;27;65469;-72
2023/08/29 04:40:32;;;;;;;;;9.50;7.50;;;;;15.63;66.85;100732.09;5073316;27;45517;-72
2023/08/29 04:42:57;;;;;;;;;9.00;6.25;;;;;15.58;67.20;100724.41;5074323;27;52188;-71
2023/08/29 04:45:23;;;;;;;;;6.75;5.50;;;;;15.62;67.12;100731.25;5066038;27;69705;-72
2023/08/29 04:47:49;;;;;;;;;8.25;7.25;;;;;15.59;67.56;100733.19;5076664;27;45508;-71
2023/08/29 04:50:14;;;;;;;;;12.25;6.25;;;;;15.57;67.15;100734.09;5085926;27;45420;-72
2023/08/29 04:52:40;;;;;;;;;8.00;6.50;;;;;15.53;67.36;100742.25;5069874;28;45502;-70
2023/08/29 04:55:06;;;;;;;;;7.50;5.00;;;;;15.51;67.61;100746.72;5074631;28;65722;-71
2023/08/29 04:57:32;;;;;;;;;7.75;6.00;;;;;15.51;67.56;100746.72;5068883;28;45371;-71
2023/08/29 04:59:58;;;;;;;;;6.75;6.75;;;;;15.49;67.90;100741.56;5077001;28;45423;-72
2023/08/29 05:02:23;;;;;;;;;8.50;7.75;;;;;15.47;67.52;100739.91;5085825;27;46212;-72
2023/08/29 05:04:49;;;;;;;;;11.25;8.00;;;;;15.44;67.89;100735.63;5080852;28;45387;-71
2023/08/29 05:07:14;;;;;;;;;8.50;5.00;;;;;15.42;67.70;100734.81;5067208;28;45284;-71
2023/08/29 05:09:40;;;;;;;;;8.75;6.25;;;;;15.40;68.15;100733.22;5065000;28;45462;-72
2023/08/29 05:12:10;;;;;;;;;9.25;7.25;;;;;15.37;68.28;100736.84;5069853;28;45882;-71
2023/08/29 05:14:35;;;;;;;;;12.00;9.00;;;;;15.36;68.38;100732.50;5066499;28;46019;-71
2023/08/29 05:17:00;;;;;;;;;7.00;7.00;;;;;15.34;68.61;100732.56;5070117;28;46403;-71
2023/08/29 05:19:26;;;;;;;;;7.50;6.00;;;;;15.31;68.70;100737.13;5061039;28;56632;-72
2023/08/29 05:21:51;;;;;;;;;11.25;8.75;;;;;15.28;68.44;100737.25;5056529;28;77282;-71
2023/08/29 05:24:16;;;;;;;;;7.75;7.75;;;;;15.29;68.43;100747.75;5077168;28;45505;-71
2023/08/29 05:26:42;;;;;;;;;7.50;6.50;;;;;15.30;69.17;100748.63;5068399;28;58861;-71
2023/08/29 05:29:07;;;;;;;;;10.25;7.50;;;;;15.29;69.14;100750.38;5091987;27;45531;-71
2023/08/29 05:31:32;;;;;;;;;6.50;5.75;;;;;15.30;68.98;100741.56;5067947;28;72037;-71
2023/08/29 05:33:58;;;;;;;;;9.25;9.00;;;;;15.33;68.79;100730.00;5078698;28;70846;-70
2023/08/29 05:36:23;;;;;;;;;7.00;6.00;;;;;15.31;68.98;100735.34;5063957;28;56461;-71
2023/08/29 05:38:48;;;;;;;;;11.25;6.00;;;;;15.33;68.95;100745.81;5078021;28;45565;-71
2023/08/29 05:41:14;;;;;;;;;9.00;6.50;;;;;15.33;68.92;100737.91;5077148;27;69063;-71
2023/08/29 05:43:40;;;;;;;;;8.25;7.00;;;;;15.33;68.86;100730.88;5071328;27;45493;-72
2023/08/29 05:46:05;;;;;;;;;9.25;9.25;;;;;15.38;69.27;100733.28;5072383;27;45458;-71
2023/08/29 05:48:31;;;;;;;;;8.25;7.00;;;;;15.42;69.02;100731.34;5075836;27;45472;-72
2023/08/29 05:50:56;;;;;;;;;8.00;8.00;;;;;15.44;68.94;100735.63;5073527;27;45253;-72
2023/08/29 05:53:21;;;;;;;;;8.25;6.75;;;;;15.46;68.96;100732.94;5077653;27;66025;-71
2023/08/29 05:55:47;;;;;;;;;11.00;9.75;;;;;15.49;68.95;100736.28;5069656;27;45183;-72
2023/08/29 05:58:12;;;;;;;;;10.00;7.00;;;;;15.51;68.91;100731.78;5080280;28;45630;-71
2023/08/29 06:00:38;;;;;;;;;8.00;6.00;;;;;15.53;69.31;100726.44;5071438;28;54440;-70
2023/08/29 06:03:05;;;;;;;;;8.75;7.75;;;;;15.54;68.80;100733.41;5068643;27;69914;-71
2023/08/29 06:05:32;;;;;;;;;9.25;6.75;;;;;15.57;69.23;100730.63;5076874;27;45706;-71
2023/08/29 06:08:00;;;;;;;;;9.25;9.00;;;;;15.59;69.51;100726.13;5069307;27;45363;-70
2023/08/29 06:10:28;;;;;;;;;9.00;9.00;;;;;15.65;68.97;100736.41;5075901;28;46333;-71
2023/08/29 06:12:54;;;;;;;;;10.00;8.00;;;;;15.70;69.28;100739.63;5078994;27;45419;-72
2023/08/29 06:15:20;;;;;;;;;11.75;9.00;;;;;15.72;69.20;100737.81;5074960;28;45275;-74
2023/08/29 06:17:45;;;;;;;;;9.25;7.50;;;;;15.73;68.96;100739.50;5054451;27;45720;-71
2023/08/29 06:20:11;;;;;;;;;9.00;7.50;;;;;15.80;69.11;100742.75;5071607;27;67911;-70
2023/08/29 06:22:37;;;;;;;;;8.75;8.00;;;;;15.81;68.99;100726.00;5056114;28;45845;-72
2023/08/29 06:25:04;;;;;;;;;9.00;8.00;;;;;15.84;68.83;100727.59;5086604;27;45473;-72
2023/08/29 06:27:29;;;;;;;;;9.75;7.75;;;;;15.91;68.89;100734.28;5070936;27;45378;-73
2023/08/29 06:29:55;;;;;;;;;11.00;7.50;;;;;15.97;68.61;100735.78;5048628;28;46263;-72
2023/08/29 06:32:20;;;;;;;;;7.50;6.00;;;;;16.00;68.65;100730.34;5056914;28;45793;-71
2023/08/29 06:34:45;;;;;;;;;11.00;9.25;;;;;16.05;68.58;100733.63;5056442;27;45435;-73
2023/08/29 06:37:11;;;;;;;;;10.50;7.75;;;;;16.15;68.33;100748.06;5070798;28;67458;-73
2023/08/29 06:39:36;;;;;;;;;10.50;7.75;;;;;16.17;68.73;100742.72;5071160;27;45274;-72
2023/08/29 06:42:02;;;;;;;;;8.25;7.00;;;;;16.25;68.14;100751.09;5053256;28;45450;-73
2023/08/29 06:44:27;;;;;;;;;9.00;8.25;;;;;16.28;68.39;100748.28;5066403;28;45446;-72
2023/08/29 06:46:52;;;;;;;;;11.00;9.00;;;;;16.29;68.20;100748.22;5066999;28;69148;-68
2023/08/29 06:49:18;;;;;;;;;12.00;9.00;;;;;16.35;68.15;100751.50;5071855;28;60886;-69
2023/08/29 06:51:43;;;;;;;;;10.25;8.25;;;;;16.36;68.15;100742.63;5068874;27;46386;-71
2023/08/29 06:54:09;;;;;;;;;9.00;7.50;;;;;16.36;68.22;100737.34;5062624;28;45749;-70
2023/08/29 06:56:34;;;;;;;;;9.00;7.75;;;;;16.42;68.00;100744.97;5072120;28;45418;-70
2023/08/29 06:58:59;;;;;;;;;10.75;8.50;;;;;16.42;68.27;100747.59;5076538;28;47059;-68
2023/08/29 07:01:25;;;;;;;;;9.50;8.75;;;;;16.44;67.75;100749.22;5070998;28;45416;-69
2023/08/29 07:03:50;;;;;;;;;8.00;7.50;;;;;16.47;68.13;100737.66;5065964;28;55110;-68
2023/08/29 07:06:15;;;;;;;;;13.75;9.00;;;;;16.51;68.22;100742.69;5060769;28;46412;-68
2023/08/29 07:08:41;;;;;;;;;8.00;7.25;;;;;16.55;67.81;100748.66;5075654;27;71687;-69
2023/08/29 07:11:07;;;;;;;;;11.50;9.25;;;;;16.57;67.97;100760.00;5077556;28;45292;-69
2023/08/29 07:13:32;;;;;;;;;12.00;8.75;;;;;16.61;67.66;100756.28;5078114;27;45441;-69
2023/08/29 07:15:58;;;;;;;;;11.00;8.25;;;;;16.63;67.51;100759.69;5070186;28;45805;-69
2023/08/29 07:18:24;;;;;;;;;10.00;8.00;;;;;16.65;67.59;100759.63;5071234;28;46133;-69
2023/08/29 07:20:49;;;;;;;;;12.50;10.00;;;;;16.67;67.16;100761.22;5063502;28;45363;-70
2023/08/29 07:23:15;;;;;;;;;11.00;8.50;;;;;16.70;67.44;100758.44;5069475;28;45354;-70
2023/08/29 07:25:43;;;;;;;;;9.50;8.25;;;;;16.72;67.24;100761.00;5073198;28;45433;-70
2023/08/29 07:28:11;;;;;;;;;13.50;9.25;;;;;16.72;67.08;100768.09;5071848;28;45373;-70
2023/08/29 07:30:46;;;;;;;;;16.25;10.00;;;;;16.72;67.10;100754.88;5091701;27;46448;-70
2023/08/29 07:33:12;;;;;;;;;11.00;11.00;;;;;16.77;67.09;100761.63;5060544;28;45328;-69
2023/08/29 07:35:41;;;;;;;;;13.25;9.75;;;;;16.82;66.95;100758.72;5061458;28;45514;-69
2023/08/29 07:38:07;;;;;;;;;10.50;9.75;;;;;16.86;67.31;100760.31;5068196;28;45436;-70
2023/08/29 07:40:36;;;;;;;;;12.75;9.50;;;;;16.92;67.18;100762.63;5063090;28;45321;-69
2023/08/29 07:43:06;;;;;;;;;14.25;10.25;;;;;16.94;66.95;100767.84;5069285;27;45449;-69
2023/08/29 07:45:32;;;;;;;;;15.00;8.75;;;;;17.00;66.86;100765.72;5073267;28;45599;-68
2023/08/29 07:47:58;;;;;;;;;13.50;9.25;;;;;17.02;66.82;100763.84;5078368;28;45492;-69
2023/08/29 07:50:24;;;;;;;;;12.50;8.50;;;;;17.00;66.81;100751.66;5078204;28;45262;-70
2023/08/29 07:52:49;;;;;;;;;11.25;9.00;;;;;17.06;66.66;100761.88;5074384;28;45277;-70
2023/08/29 07:55:14;;;;;;;;;7.50;6.00;;;;;17.07;66.49;100753.03;5070312;27;70425;-69
2023/08/29 07:57:40;;;;;;;;;10.00;8.00;;;;;17.12;66.79;100756.25;5080126;28;68921;-70
2023/08/29 08:00:09;;;;;;;;;12.25;10.00;;;;;17.16;66.66;100752.53;5064617;28;45372;-69
2023/08/29 08:02:38;;;;;;;;;30.00;26.75;;;;;17.27;66.27;100754.59;5075199;28;45413;-70
2023/08/29 08:05:06;;;;;;;;;9.00;8.50;;;;;17.32;66.12;100754.34;5073144;28;45199;-69
2023/08/29 08:07:31;;;;;;;;;13.00;7.75;;;;;17.37;66.03;100757.56;5069923;28;46197;-70
2023/08/29 08:09:56;;;;;;;;;20.75;15.75;;;;;17.45;65.74;100756.22;5073164;28;67874;-70
2023/08/29 08:12:22;;;;;;;;;8.50;6.50;;;;;17.52;65.74;100748.78;5065818;28;45415;-70
2023/08/29 08:14:47;;;;;;;;;11.75;9.75;;;;;17.59;65.57;100744.00;5070986;28;62321;-70
2023/08/29 08:17:12;;;;;;;;;9.50;8.00;;;;;17.64;65.43;100745.47;5066192;28;52546;-70
2023/08/29 08:19:37;;;;;;;;;12.25;8.50;;;;;17.71;65.49;100745.97;5069020;28;70290;-70
2023/08/29 08:22:03;;;;;;;;;10.00;7.25;;;;;17.81;65.32;100747.16;5052757;28;61842;-69
2023/08/29 08:24:28;;;;;;;;;8.75;6.75;;;;;17.90;65.20;100744.94;5074553;28;45357;-70
2023/08/29 08:26:53;;;;;;;;;5.50;4.75;;;;;17.96;64.92;100742.78;5051035;28;46570;-70
2023/08/29 08:29:19;;;;;;;;;7.50;5.00;;;;;18.00;64.50;100744.31;5073162;28;70430;-70
2023/08/29 08:31:46;;;;;;;;;14.50;8.25;;;;;18.05;64.21;100744.06;5076747;28;45266;-70
2023/08/29 08:34:12;;;;;;;;;8.25;7.50;;;;;18.07;63.86;100736.88;5073463;28;45231;-70
2023/08/29 08:36:38;;;;;;;;;9.75;8.00;;;;;18.12;63.94;100732.16;5069363;28;47113;-69
2023/08/29 08:39:04;;;;;;;;;6.75;5.50;;;;;18.19;63.25;100743.25;5075138;28;45464;-69
2023/08/29 08:41:31;;;;;;;;;4.75;3.00;;;;;18.25;62.85;100740.22;5050808;28;45366;-69
2023/08/29 08:43:58;;;;;;;;;8.00;5.50;;;;;18.28;62.26;100745.34;5066747;28;64238;-69
2023/08/29 08:46:24;;;;;;;;;7.00;7.00;;;;;18.29;61.78;100741.78;5075470;28;45529;-70
2023/08/29 08:48:49;;;;;;;;;8.25;6.50;;;;;18.33;62.18;100740.63;5074183;27;45364;-70
2023/08/29 08:51:16;;;;;;;;;5.75;4.75;;;;;18.41;61.70;100734.88;5074639;28;45509;-70
2023/08/29 08:53:41;;;;;;;;;5.75;5.75;;;;;18.45;61.04;100731.13;5070320;28;45555;-70
2023/08/29 08:56:08;;;;;;;;;7.25;4.75;;;;;18.52;60.66;100735.09;5092178;27;47196;-70
2023/08/29 08:58:35;;;;;;;;;3.00;3.00;;;;;18.63;59.67;100736.22;5054087;28;45914;-70
2023/08/29 09:01:01;;;;;;;;;4.50;3.50;;;;;18.69;59.76;100734.06;5076814;27;45505;-71
2023/08/29 09:03:26;;;;;;;;;6.25;3.00;;;;;18.85;59.28;100746.41;5080495;28;45437;-69
2023/08/29 09:05:52;;;;;;;;;4.25;2.75;;;;;18.95;58.71;100748.41;5046128;28;75771;-70
2023/08/29 09:08:20;;;;;;;;;7.00;4.00;;;;;19.01;59.46;100739.22;5079591;28;45293;-69
2023/08/29 09:10:46;;;;;;;;;5.00;3.25;;;;;19.08;58.09;100737.03;5075314;28;45249;-69
2023/08/29 09:13:17;;;;;;;;;4.75;3.00;;;;;19.15;57.99;100738.34;5067604;28;45436;-69
2023/08/29 09:15:45;;;;;;;;;7.00;4.25;;;;;19.18;57.98;100735.50;5080756;28;47101;-70
2023/08/29 09:18:13;;;;;;;;;5.25;4.00;;;;;19.21;57.57;100732.66;5074169;28;45181;-70
2023/08/29 09:20:43;;;;;;;;;3.75;3.00;;;;;19.25;57.04;100728.03;5068562;28;45265;-70
2023/08/29 09:23:21;;;;;;;;;3.50;3.50;;;;;19.29;57.08;100729.53;5070060;27;45630;-70
2023/08/29 09:25:54;;;;;;;;;5.50;2.75;;;;;19.37;56.38;100721.94;5069706;28;47053;-70
2023/08/29 09:28:20;;;;;;;;;13.25;10.50;;;;;19.47;57.19;100725.69;5078981;28;45897;-69
2023/08/29 09:30:46;;;;;;;;;6.25;5.50;;;;;19.50;56.86;100725.47;5064826;28;45365;-71
2023/08/29 09:33:11;;;;;;;;;10.25;8.00;;;;;19.51;55.64;100727.19;5052308;28;75748;-70
2023/08/29 09:35:37;;;;;;;;;3.00;2.75;;;;;19.58;55.73;100724.97;5053797;28;61031;-70
2023/08/29 09:38:03;;;;;;;;;4.00;3.00;;;;;19.65;55.15;100710.34;5065090;28;61560;-70
2023/08/29 09:40:28;;;;;;;;;5.75;4.00;;;;;19.77;56.15;100723.81;5077765;28;45258;-70
2023/08/29 09:42:54;;;;;;;;;2.00;2.00;;;;;19.81;54.99;100706.72;5067244;28;45212;-70
2023/08/29 09:45:20;;;;;;;;;6.50;4.75;;;;;19.91;55.45;100711.31;5074425;28;46316;-70
2023/08/29 09:47:45;;;;;;;;;5.00;3.25;;;;;20.09;56.09;100711.03;5066423;28;45459;-69
2023/08/29 09:50:11;;;;;;;;;2.75;2.75;;;;;20.27;54.94;100703.63;5077429;27;67092;-70
2023/08/29 09:52:37;;;;;;;;;6.75;5.50;;;;;20.53;55.18;100706.31;5064855;28;45285;-69
2023/08/29 09:55:05;;;;;;;;;4.75;4.00;;;;;20.75;54.77;100708.34;5069824;28;46481;-69
2023/08/29 09:57:33;;;;;;;;;2.75;1.00;;;;;20.79;54.26;100708.03;5066361;28;45282;-69
2023/08/29 10:00:00;;;;;;;;;2.50;2.00;;;;;20.77;53.68;100717.94;5071245;28;45378;-70
2023/08/29 10:02:29;;;;;;;;;2.50;2.50;;;;;20.67;54.05;100704.41;5076338;28;45371;-70
2023/08/29 10:05:06;;;;;;;;;3.25;3.25;;;;;20.61;53.11;100712.84;5060184;28;46132;-71
2023/08/29 10:07:41;;;;;;;;;4.75;4.00;;;;;20.55;53.33;100710.56;5067028;28;45285;-70
2023/08/29 10:10:07;;;;;;;;;4.75;2.50;;;;;20.57;53.43;100699.81;5064913;27;45257;-71
2023/08/29 10:12:33;;;;;;;;;5.25;2.50;;;;;20.66;53.13;100704.53;5091620;27;45992;-72
2023/08/29 10:15:00;;;;;;;;;3.00;3.00;;;;;20.78;53.15;100710.78;5066516;28;72391;-70
2023/08/29 10:17:26;;;;;;;;;3.25;3.25;;;;;20.80;52.65;100690.25;5075844;28;45414;-70
2023/08/29 10:19:52;;;;;;;;;6.00;2.00;;;;;20.86;52.85;100705.81;5075459;28;45468;-70
2023/08/29 10:22:18;;;;;;;;;7.25;4.50;;;;;20.87;52.52;100702.16;5066745;28;45498;-69
2023/08/29 10:24:44;;;;;;;;;10.75;7.25;;;;;20.83;51.49;100698.03;5064649;28;70828;-69
2023/08/29 10:27:10;;;;;;;;;4.50;3.00;;;;;20.89;51.96;100691.41;5070589;28;45349;-69
2023/08/29 10:29:37;;;;;;;;;4.25;4.00;;;;;20.97;51.64;100689.06;5065949;28;45239;-69
2023/08/29 10:32:03;;;;;;;;;3.50;3.00;;;;;21.13;51.84;100689.66;5066632;28;45351;-69
2023/08/29 10:34:29;;;;;;;;;5.00;3.00;;;;;21.30;51.53;100683.13;5072389;28;46217;-70
2023/08/29 10:36:55;;;;;;;;;2.25;0.00;;;;;21.49;51.15;100671.97;5064830;28;45303;-69
2023/08/29 10:39:21;;;;;;;;;5.67;3.67;;;;;21.64;50.61;100666.47;5074254;28;45537;-69
2023/08/29 10:41:48;;;;;;;;;2.75;2.75;;;;;21.76;50.45;100668.22;5068102;28;45502;-70
2023/08/29 10:44:28;;;;;;;;;4.25;2.75;;;;;21.86;48.82;100663.91;5061473;28;45335;-69
2023/08/29 10:46:56;;;;;;;;;5.75;4.50;;;;;22.02;49.91;100671.59;5086977;27;45336;-69
2023/08/29 10:49:22;;;;;;;;;3.50;3.25;;;;;22.13;48.61;100662.75;5079597;27;45392;-70
2023/08/29 10:52:09;;;;;;;;;4.75;2.50;;;;;22.25;47.97;100667.16;5084719;27;45495;-70
2023/08/29 10:54:34;;;;;;;;;5.00;4.00;;;;;22.41;48.79;100661.50;5082712;27;47508;-70
2023/08/29 10:57:00;;;;;;;;;4.75;3.75;;;;;22.43;48.05;100666.72;5067313;27;68039;-70
2023/08/29 10:59:35;;;;;;;;;9.00;6.00;;;;;22.36;49.03;100675.22;5066080;28;45497;-69
2023/08/29 11:02:23;;;;;;;;;5.50;5.50;;;;;22.22;49.27;100679.88;5070466;28;45525;-70
2023/08/29 11:04:53;;;;;;;;;4.75;3.50;;;;;22.03;50.04;100667.97;5063992;28;45351;-70
2023/08/29 11:07:25;;;;;;;;;5.50;5.00;;;;;21.85;50.47;100672.00;5072448;28;45732;-70
2023/08/29 11:10:11;;;;;;;;;5.00;4.75;;;;;21.74;50.80;100675.50;5069968;28;45311;-70
2023/08/29 11:12:36;;;;;;;;;6.00;5.00;;;;;21.69;51.47;100673.19;5075846;28;45492;-69
2023/08/29 11:15:02;;;;;;;;;4.25;3.25;;;;;21.66;51.07;100681.41;5063718;28;66250;-69
2023/08/29 11:17:28;;;;;;;;;5.00;3.75;;;;;21.56;51.08;100667.91;5070161;28;45329;-70
2023/08/29 11:19:54;;;;;;;;;7.50;5.00;;;;;21.49;50.83;100673.81;5056419;28;45301;-70
2023/08/29 11:22:22;;;;;;;;;8.25;6.00;;;;;21.43;51.22;100680.41;5070295;28;45359;-69